sensor_id;sensor_type;location;lat;lon;timestamp;P1;durP1;ratioP1;P2;durP2;ratioP2
11598;SDS011;5855;48.840;9.188;2023-07-31T00:00:57;3.90;;;1.98;;
11598;SDS011;5855;48.840;9.188;2023-07-31T00:03:24;3.05;;;1.65;;
11598;SDS011;5855;48.840;9.188;2023-07-31T00:05:55;3.65;;;1.65;;
11598;SDS011;5855;48.840;9.188;2023-07-31T00:08:23;5.00;;;1.63;;
11598;SDS011;5855;48.840;9.188;2023-07-31T00:10:51;4.20;;;2.00;;
11598;SDS011;5855;48.840;9.188;2023-07-31T00:13:18;3.42;;;1.80;;
11598;SDS011;5855;48.840;9.188;2023-07-31T00:15:45;4.35;;;1.80;;
11598;SDS011;5855;48.840;9.188;2023-07-31T00:18:12;3.03;;;1.60;;
11598;SDS011;5855;48.840;9.188;2023-07-31T00:20:39;3.00;;;1.73;;
11598;SDS011;5855;48.840;9.188;2023-07-31T00:23:06;5.70;;;1.75;;
11598;SDS011;5855;48.840;9.188;2023-07-31T00:25:34;4.13;;;1.73;;
11598;SDS011;5855;48.840;9.188;2023-07-31T00:28:01;4.75;;;1.80;;
11598;SDS011;5855;48.840;9.188;2023-07-31T00:30:28;4.63;;;1.67;;
11598;SDS011;5855;48.840;9.188;2023-07-31T00:32:55;2.50;;;1.80;;
11598;SDS011;5855;48.840;9.188;2023-07-31T00:35:22;3.63;;;1.80;;
11598;SDS011;5855;48.840;9.188;2023-07-31T00:37:49;2.95;;;1.60;;
11598;SDS011;5855;48.840;9.188;2023-07-31T00:40:15;5.75;;;2.17;;
11598;SDS011;5855;48.840;9.188;2023-07-31T00:42:44;5.30;;;1.90;;
11598;SDS011;5855;48.840;9.188;2023-07-31T00:45:10;3.03;;;2.05;;
11598;SDS011;5855;48.840;9.188;2023-07-31T00:47:37;3.28;;;1.67;;
11598;SDS011;5855;48.840;9.188;2023-07-31T00:50:05;4.20;;;2.13;;
11598;SDS011;5855;48.840;9.188;2023-07-31T00:52:33;4.28;;;1.90;;
11598;SDS011;5855;48.840;9.188;2023-07-31T00:54:59;3.88;;;1.63;;
11598;SDS011;5855;48.840;9.188;2023-07-31T00:57:26;3.75;;;1.70;;
11598;SDS011;5855;48.840;9.188;2023-07-31T00:59:55;3.70;;;1.63;;
11598;SDS011;5855;48.840;9.188;2023-07-31T01:02:21;2.53;;;1.60;;
11598;SDS011;5855;48.840;9.188;2023-07-31T01:04:48;5.22;;;2.00;;
11598;SDS011;5855;48.840;9.188;2023-07-31T01:07:18;4.90;;;2.10;;
11598;SDS011;5855;48.840;9.188;2023-07-31T01:09:53;3.28;;;1.92;;
11598;SDS011;5855;48.840;9.188;2023-07-31T01:12:28;7.47;;;2.13;;
11598;SDS011;5855;48.840;9.188;2023-07-31T01:15:06;3.08;;;1.80;;
11598;SDS011;5855;48.840;9.188;2023-07-31T01:17:36;3.08;;;1.77;;
11598;SDS011;5855;48.840;9.188;2023-07-31T01:20:03;3.95;;;1.80;;
11598;SDS011;5855;48.840;9.188;2023-07-31T01:25:30;3.20;;;1.73;;
11598;SDS011;5855;48.840;9.188;2023-07-31T01:28:10;2.40;;;1.65;;
11598;SDS011;5855;48.840;9.188;2023-07-31T01:30:41;3.67;;;1.73;;
11598;SDS011;5855;48.840;9.188;2023-07-31T01:33:10;3.80;;;1.83;;
11598;SDS011;5855;48.840;9.188;2023-07-31T01:35:38;4.70;;;1.80;;
11598;SDS011;5855;48.840;9.188;2023-07-31T01:38:06;7.72;;;1.90;;
11598;SDS011;5855;48.840;9.188;2023-07-31T01:40:33;2.97;;;1.55;;
11598;SDS011;5855;48.840;9.188;2023-07-31T01:43:00;4.25;;;1.83;;
11598;SDS011;5855;48.840;9.188;2023-07-31T01:45:28;3.78;;;1.85;;
11598;SDS011;5855;48.840;9.188;2023-07-31T01:47:55;3.45;;;2.00;;
11598;SDS011;5855;48.840;9.188;2023-07-31T01:50:22;3.90;;;2.10;;
11598;SDS011;5855;48.840;9.188;2023-07-31T01:52:49;3.85;;;1.90;;
11598;SDS011;5855;48.840;9.188;2023-07-31T01:55:15;5.13;;;1.98;;
11598;SDS011;5855;48.840;9.188;2023-07-31T01:57:42;4.43;;;1.80;;
11598;SDS011;5855;48.840;9.188;2023-07-31T02:00:09;5.38;;;1.98;;
11598;SDS011;5855;48.840;9.188;2023-07-31T02:02:41;2.47;;;1.73;;
11598;SDS011;5855;48.840;9.188;2023-07-31T02:05:08;5.45;;;1.90;;
11598;SDS011;5855;48.840;9.188;2023-07-31T02:07:35;3.70;;;1.88;;
11598;SDS011;5855;48.840;9.188;2023-07-31T02:10:02;3.75;;;1.88;;
11598;SDS011;5855;48.840;9.188;2023-07-31T02:12:29;4.82;;;1.70;;
11598;SDS011;5855;48.840;9.188;2023-07-31T02:14:57;5.45;;;2.03;;
11598;SDS011;5855;48.840;9.188;2023-07-31T02:17:24;3.17;;;1.77;;
11598;SDS011;5855;48.840;9.188;2023-07-31T02:19:52;3.55;;;1.70;;
11598;SDS011;5855;48.840;9.188;2023-07-31T02:22:19;4.10;;;1.92;;
11598;SDS011;5855;48.840;9.188;2023-07-31T02:24:46;4.75;;;1.73;;
11598;SDS011;5855;48.840;9.188;2023-07-31T02:27:13;3.00;;;1.63;;
11598;SDS011;5855;48.840;9.188;2023-07-31T02:29:40;3.65;;;2.00;;
11598;SDS011;5855;48.840;9.188;2023-07-31T02:32:07;2.80;;;1.80;;
11598;SDS011;5855;48.840;9.188;2023-07-31T02:34:34;6.07;;;1.98;;
11598;SDS011;5855;48.840;9.188;2023-07-31T02:37:02;5.80;;;1.85;;
11598;SDS011;5855;48.840;9.188;2023-07-31T02:39:29;4.38;;;1.85;;
11598;SDS011;5855;48.840;9.188;2023-07-31T02:41:56;4.93;;;1.85;;
11598;SDS011;5855;48.840;9.188;2023-07-31T02:44:22;2.95;;;1.52;;
11598;SDS011;5855;48.840;9.188;2023-07-31T02:46:49;5.25;;;1.88;;
11598;SDS011;5855;48.840;9.188;2023-07-31T02:49:16;4.40;;;1.92;;
11598;SDS011;5855;48.840;9.188;2023-07-31T02:51:45;3.47;;;1.90;;
11598;SDS011;5855;48.840;9.188;2023-07-31T02:54:13;4.80;;;1.88;;
11598;SDS011;5855;48.840;9.188;2023-07-31T02:56:40;2.00;;;1.58;;
11598;SDS011;5855;48.840;9.188;2023-07-31T02:59:07;4.68;;;1.90;;
11598;SDS011;5855;48.840;9.188;2023-07-31T03:01:34;5.22;;;1.98;;
11598;SDS011;5855;48.840;9.188;2023-07-31T03:04:00;2.88;;;1.60;;
11598;SDS011;5855;48.840;9.188;2023-07-31T03:06:27;4.18;;;1.70;;
11598;SDS011;5855;48.840;9.188;2023-07-31T03:08:54;5.00;;;1.85;;
11598;SDS011;5855;48.840;9.188;2023-07-31T03:11:22;3.40;;;1.70;;
11598;SDS011;5855;48.840;9.188;2023-07-31T03:13:49;4.25;;;1.70;;
11598;SDS011;5855;48.840;9.188;2023-07-31T03:16:16;4.03;;;1.90;;
11598;SDS011;5855;48.840;9.188;2023-07-31T03:18:43;4.05;;;1.73;;
11598;SDS011;5855;48.840;9.188;2023-07-31T03:21:10;3.78;;;1.77;;
11598;SDS011;5855;48.840;9.188;2023-07-31T03:23:36;3.10;;;1.80;;
11598;SDS011;5855;48.840;9.188;2023-07-31T03:26:05;6.03;;;1.70;;
11598;SDS011;5855;48.840;9.188;2023-07-31T03:28:35;3.55;;;2.10;;
11598;SDS011;5855;48.840;9.188;2023-07-31T03:31:02;6.65;;;2.10;;
11598;SDS011;5855;48.840;9.188;2023-07-31T03:33:29;2.38;;;1.75;;
11598;SDS011;5855;48.840;9.188;2023-07-31T03:35:56;3.72;;;1.70;;
11598;SDS011;5855;48.840;9.188;2023-07-31T03:38:23;2.53;;;1.60;;
11598;SDS011;5855;48.840;9.188;2023-07-31T03:40:49;3.08;;;2.03;;
11598;SDS011;5855;48.840;9.188;2023-07-31T03:43:16;3.38;;;1.60;;
11598;SDS011;5855;48.840;9.188;2023-07-31T03:45:44;6.70;;;1.98;;
11598;SDS011;5855;48.840;9.188;2023-07-31T03:48:11;3.75;;;1.67;;
11598;SDS011;5855;48.840;9.188;2023-07-31T03:50:41;4.15;;;2.00;;
11598;SDS011;5855;48.840;9.188;2023-07-31T03:53:07;6.05;;;1.90;;
11598;SDS011;5855;48.840;9.188;2023-07-31T03:55:34;2.97;;;1.92;;
11598;SDS011;5855;48.840;9.188;2023-07-31T03:58:01;3.20;;;2.10;;
11598;SDS011;5855;48.840;9.188;2023-07-31T04:00:28;3.28;;;1.80;;
11598;SDS011;5855;48.840;9.188;2023-07-31T04:02:56;4.22;;;2.17;;
11598;SDS011;5855;48.840;9.188;2023-07-31T04:05:23;4.30;;;1.83;;
11598;SDS011;5855;48.840;9.188;2023-07-31T04:07:50;4.82;;;2.10;;
11598;SDS011;5855;48.840;9.188;2023-07-31T04:10:17;4.18;;;1.70;;
11598;SDS011;5855;48.840;9.188;2023-07-31T04:12:43;4.20;;;1.80;;
11598;SDS011;5855;48.840;9.188;2023-07-31T04:15:10;2.80;;;1.95;;
11598;SDS011;5855;48.840;9.188;2023-07-31T04:17:37;2.50;;;1.80;;
11598;SDS011;5855;48.840;9.188;2023-07-31T04:20:06;2.63;;;1.80;;
11598;SDS011;5855;48.840;9.188;2023-07-31T04:22:33;6.97;;;2.22;;
11598;SDS011;5855;48.840;9.188;2023-07-31T04:25:00;3.10;;;1.70;;
11598;SDS011;5855;48.840;9.188;2023-07-31T04:27:27;3.20;;;1.85;;
11598;SDS011;5855;48.840;9.188;2023-07-31T04:29:54;4.10;;;1.90;;
11598;SDS011;5855;48.840;9.188;2023-07-31T04:32:21;5.38;;;2.15;;
11598;SDS011;5855;48.840;9.188;2023-07-31T04:34:48;5.05;;;1.98;;
11598;SDS011;5855;48.840;9.188;2023-07-31T04:37:16;4.35;;;1.83;;
11598;SDS011;5855;48.840;9.188;2023-07-31T04:39:43;5.30;;;2.15;;
11598;SDS011;5855;48.840;9.188;2023-07-31T04:42:10;4.78;;;2.17;;
11598;SDS011;5855;48.840;9.188;2023-07-31T04:44:37;4.88;;;1.90;;
11598;SDS011;5855;48.840;9.188;2023-07-31T04:47:04;4.85;;;2.15;;
11598;SDS011;5855;48.840;9.188;2023-07-31T04:49:31;4.00;;;2.10;;
11598;SDS011;5855;48.840;9.188;2023-07-31T04:51:58;4.32;;;2.13;;
11598;SDS011;5855;48.840;9.188;2023-07-31T04:54:26;4.70;;;1.88;;
11598;SDS011;5855;48.840;9.188;2023-07-31T04:56:53;3.55;;;2.00;;
11598;SDS011;5855;48.840;9.188;2023-07-31T04:59:20;4.78;;;1.80;;
11598;SDS011;5855;48.840;9.188;2023-07-31T05:01:47;3.88;;;1.92;;
11598;SDS011;5855;48.840;9.188;2023-07-31T05:04:14;2.55;;;1.85;;
11598;SDS011;5855;48.840;9.188;2023-07-31T05:06:41;5.28;;;2.00;;
11598;SDS011;5855;48.840;9.188;2023-07-31T05:09:08;2.75;;;1.75;;
11598;SDS011;5855;48.840;9.188;2023-07-31T05:11:36;5.78;;;2.15;;
11598;SDS011;5855;48.840;9.188;2023-07-31T05:14:05;3.75;;;2.05;;
11598;SDS011;5855;48.840;9.188;2023-07-31T05:16:35;4.65;;;1.90;;
11598;SDS011;5855;48.840;9.188;2023-07-31T05:19:02;4.88;;;2.55;;
11598;SDS011;5855;48.840;9.188;2023-07-31T05:21:29;4.43;;;1.88;;
11598;SDS011;5855;48.840;9.188;2023-07-31T05:23:55;6.03;;;1.80;;
11598;SDS011;5855;48.840;9.188;2023-07-31T05:26:22;5.85;;;2.10;;
11598;SDS011;5855;48.840;9.188;2023-07-31T05:28:56;5.72;;;1.70;;
11598;SDS011;5855;48.840;9.188;2023-07-31T05:31:44;5.78;;;2.00;;
11598;SDS011;5855;48.840;9.188;2023-07-31T05:34:11;5.82;;;2.10;;
11598;SDS011;5855;48.840;9.188;2023-07-31T05:36:37;5.03;;;1.80;;
11598;SDS011;5855;48.840;9.188;2023-07-31T05:39:04;6.57;;;2.03;;
11598;SDS011;5855;48.840;9.188;2023-07-31T05:41:33;4.70;;;1.98;;
11598;SDS011;5855;48.840;9.188;2023-07-31T05:44:03;4.32;;;1.85;;
11598;SDS011;5855;48.840;9.188;2023-07-31T05:46:30;2.75;;;1.63;;
11598;SDS011;5855;48.840;9.188;2023-07-31T05:48:57;2.92;;;1.80;;
11598;SDS011;5855;48.840;9.188;2023-07-31T05:51:25;3.60;;;1.98;;
11598;SDS011;5855;48.840;9.188;2023-07-31T05:53:52;6.82;;;1.83;;
11598;SDS011;5855;48.840;9.188;2023-07-31T05:56:19;4.00;;;1.88;;
11598;SDS011;5855;48.840;9.188;2023-07-31T05:58:46;2.10;;;1.63;;
11598;SDS011;5855;48.840;9.188;2023-07-31T06:01:15;7.75;;;2.00;;
11598;SDS011;5855;48.840;9.188;2023-07-31T06:03:42;5.35;;;1.92;;
11598;SDS011;5855;48.840;9.188;2023-07-31T06:06:09;4.45;;;1.95;;
11598;SDS011;5855;48.840;9.188;2023-07-31T06:08:38;2.40;;;1.83;;
11598;SDS011;5855;48.840;9.188;2023-07-31T06:11:06;4.07;;;1.83;;
11598;SDS011;5855;48.840;9.188;2023-07-31T06:13:34;4.75;;;2.03;;
11598;SDS011;5855;48.840;9.188;2023-07-31T06:16:01;7.57;;;1.77;;
11598;SDS011;5855;48.840;9.188;2023-07-31T06:18:31;4.10;;;1.92;;
11598;SDS011;5855;48.840;9.188;2023-07-31T06:20:58;4.57;;;2.00;;
11598;SDS011;5855;48.840;9.188;2023-07-31T06:23:25;8.52;;;2.13;;
11598;SDS011;5855;48.840;9.188;2023-07-31T06:25:52;2.22;;;1.73;;
11598;SDS011;5855;48.840;9.188;2023-07-31T06:28:19;2.38;;;1.90;;
11598;SDS011;5855;48.840;9.188;2023-07-31T06:30:46;3.50;;;1.90;;
11598;SDS011;5855;48.840;9.188;2023-07-31T06:33:13;5.07;;;2.13;;
11598;SDS011;5855;48.840;9.188;2023-07-31T06:35:41;3.53;;;2.00;;
11598;SDS011;5855;48.840;9.188;2023-07-31T06:38:09;6.45;;;2.20;;
11598;SDS011;5855;48.840;9.188;2023-07-31T06:40:36;5.20;;;2.03;;
11598;SDS011;5855;48.840;9.188;2023-07-31T06:43:03;4.53;;;2.28;;
11598;SDS011;5855;48.840;9.188;2023-07-31T06:45:33;6.05;;;2.10;;
11598;SDS011;5855;48.840;9.188;2023-07-31T06:48:00;5.28;;;2.10;;
11598;SDS011;5855;48.840;9.188;2023-07-31T06:50:27;6.50;;;2.08;;
11598;SDS011;5855;48.840;9.188;2023-07-31T06:52:55;2.97;;;1.70;;
11598;SDS011;5855;48.840;9.188;2023-07-31T06:55:23;3.75;;;2.00;;
11598;SDS011;5855;48.840;9.188;2023-07-31T06:57:51;3.95;;;2.08;;
11598;SDS011;5855;48.840;9.188;2023-07-31T07:00:19;5.15;;;2.00;;
11598;SDS011;5855;48.840;9.188;2023-07-31T07:02:47;4.45;;;1.77;;
11598;SDS011;5855;48.840;9.188;2023-07-31T07:05:15;3.75;;;1.88;;
11598;SDS011;5855;48.840;9.188;2023-07-31T07:07:42;4.18;;;1.90;;
11598;SDS011;5855;48.840;9.188;2023-07-31T07:10:11;4.20;;;1.90;;
11598;SDS011;5855;48.840;9.188;2023-07-31T07:12:38;6.88;;;2.08;;
11598;SDS011;5855;48.840;9.188;2023-07-31T07:15:05;3.95;;;1.95;;
11598;SDS011;5855;48.840;9.188;2023-07-31T07:17:32;2.85;;;2.00;;
11598;SDS011;5855;48.840;9.188;2023-07-31T07:19:59;4.70;;;1.70;;
11598;SDS011;5855;48.840;9.188;2023-07-31T07:22:28;6.40;;;2.08;;
11598;SDS011;5855;48.840;9.188;2023-07-31T07:24:55;2.97;;;1.80;;
11598;SDS011;5855;48.840;9.188;2023-07-31T07:27:23;4.07;;;1.75;;
11598;SDS011;5855;48.840;9.188;2023-07-31T07:29:50;3.00;;;2.00;;
11598;SDS011;5855;48.840;9.188;2023-07-31T07:32:18;4.38;;;2.00;;
11598;SDS011;5855;48.840;9.188;2023-07-31T07:34:45;8.82;;;2.53;;
11598;SDS011;5855;48.840;9.188;2023-07-31T07:37:13;4.20;;;2.17;;
11598;SDS011;5855;48.840;9.188;2023-07-31T07:39:40;5.43;;;2.50;;
11598;SDS011;5855;48.840;9.188;2023-07-31T07:42:07;4.55;;;2.13;;
11598;SDS011;5855;48.840;9.188;2023-07-31T07:44:35;4.50;;;1.92;;
11598;SDS011;5855;48.840;9.188;2023-07-31T07:47:02;4.80;;;2.30;;
11598;SDS011;5855;48.840;9.188;2023-07-31T07:49:31;5.22;;;2.25;;
11598;SDS011;5855;48.840;9.188;2023-07-31T07:51:59;5.32;;;2.25;;
11598;SDS011;5855;48.840;9.188;2023-07-31T07:54:26;4.18;;;2.00;;
11598;SDS011;5855;48.840;9.188;2023-07-31T07:56:52;4.35;;;2.33;;
11598;SDS011;5855;48.840;9.188;2023-07-31T07:59:19;6.68;;;2.40;;
11598;SDS011;5855;48.840;9.188;2023-07-31T08:01:48;5.53;;;2.42;;
11598;SDS011;5855;48.840;9.188;2023-07-31T08:04:14;6.68;;;2.25;;
11598;SDS011;5855;48.840;9.188;2023-07-31T08:06:41;4.63;;;1.98;;
11598;SDS011;5855;48.840;9.188;2023-07-31T08:09:08;3.25;;;1.83;;
11598;SDS011;5855;48.840;9.188;2023-07-31T08:11:35;4.60;;;2.00;;
11598;SDS011;5855;48.840;9.188;2023-07-31T08:14:02;7.72;;;2.30;;
11598;SDS011;5855;48.840;9.188;2023-07-31T08:16:29;3.35;;;1.90;;
11598;SDS011;5855;48.840;9.188;2023-07-31T08:18:57;4.78;;;2.15;;
11598;SDS011;5855;48.840;9.188;2023-07-31T08:21:24;5.13;;;2.17;;
11598;SDS011;5855;48.840;9.188;2023-07-31T08:23:50;5.20;;;2.17;;
11598;SDS011;5855;48.840;9.188;2023-07-31T08:26:17;7.65;;;2.25;;
11598;SDS011;5855;48.840;9.188;2023-07-31T08:28:45;4.38;;;2.53;;
11598;SDS011;5855;48.840;9.188;2023-07-31T08:31:12;3.28;;;2.00;;
11598;SDS011;5855;48.840;9.188;2023-07-31T08:33:39;4.80;;;2.20;;
11598;SDS011;5855;48.840;9.188;2023-07-31T08:36:07;5.47;;;2.13;;
11598;SDS011;5855;48.840;9.188;2023-07-31T08:38:34;5.53;;;2.28;;
11598;SDS011;5855;48.840;9.188;2023-07-31T08:41:02;3.22;;;1.95;;
11598;SDS011;5855;48.840;9.188;2023-07-31T08:43:29;5.65;;;2.10;;
11598;SDS011;5855;48.840;9.188;2023-07-31T08:45:57;4.10;;;2.50;;
11598;SDS011;5855;48.840;9.188;2023-07-31T08:48:24;4.18;;;2.10;;
11598;SDS011;5855;48.840;9.188;2023-07-31T08:50:51;4.20;;;1.98;;
11598;SDS011;5855;48.840;9.188;2023-07-31T08:53:20;4.82;;;2.20;;
11598;SDS011;5855;48.840;9.188;2023-07-31T08:55:48;7.03;;;2.28;;
11598;SDS011;5855;48.840;9.188;2023-07-31T08:58:15;5.82;;;2.20;;
11598;SDS011;5855;48.840;9.188;2023-07-31T09:00:44;6.28;;;2.30;;
11598;SDS011;5855;48.840;9.188;2023-07-31T09:03:17;5.75;;;2.20;;
11598;SDS011;5855;48.840;9.188;2023-07-31T09:05:45;4.60;;;2.25;;
11598;SDS011;5855;48.840;9.188;2023-07-31T09:08:13;5.18;;;2.45;;
11598;SDS011;5855;48.840;9.188;2023-07-31T09:10:45;4.78;;;2.28;;
11598;SDS011;5855;48.840;9.188;2023-07-31T09:13:12;3.65;;;2.20;;
11598;SDS011;5855;48.840;9.188;2023-07-31T09:15:41;5.07;;;2.58;;
11598;SDS011;5855;48.840;9.188;2023-07-31T09:18:10;5.07;;;2.00;;
11598;SDS011;5855;48.840;9.188;2023-07-31T09:20:37;6.25;;;2.60;;
11598;SDS011;5855;48.840;9.188;2023-07-31T09:23:07;3.50;;;2.15;;
11598;SDS011;5855;48.840;9.188;2023-07-31T09:25:35;3.90;;;2.10;;
11598;SDS011;5855;48.840;9.188;2023-07-31T09:28:05;5.05;;;2.22;;
11598;SDS011;5855;48.840;9.188;2023-07-31T09:30:43;5.13;;;2.35;;
11598;SDS011;5855;48.840;9.188;2023-07-31T09:33:12;6.32;;;2.20;;
11598;SDS011;5855;48.840;9.188;2023-07-31T09:35:39;3.80;;;2.40;;
11598;SDS011;5855;48.840;9.188;2023-07-31T09:38:06;4.43;;;2.35;;
11598;SDS011;5855;48.840;9.188;2023-07-31T09:40:35;7.88;;;2.25;;
11598;SDS011;5855;48.840;9.188;2023-07-31T09:43:06;6.28;;;2.47;;
11598;SDS011;5855;48.840;9.188;2023-07-31T09:45:35;4.47;;;2.30;;
11598;SDS011;5855;48.840;9.188;2023-07-31T09:48:05;4.57;;;2.33;;
11598;SDS011;5855;48.840;9.188;2023-07-31T09:50:34;6.95;;;2.47;;
11598;SDS011;5855;48.840;9.188;2023-07-31T09:53:03;5.03;;;2.40;;
11598;SDS011;5855;48.840;9.188;2023-07-31T09:55:30;5.18;;;2.40;;
11598;SDS011;5855;48.840;9.188;2023-07-31T09:57:58;6.07;;;2.47;;
11598;SDS011;5855;48.840;9.188;2023-07-31T10:00:26;3.88;;;2.33;;
11598;SDS011;5855;48.840;9.188;2023-07-31T10:02:57;3.92;;;2.17;;
11598;SDS011;5855;48.840;9.188;2023-07-31T10:05:25;5.00;;;2.35;;
11598;SDS011;5855;48.840;9.188;2023-07-31T10:07:58;4.18;;;2.42;;
11598;SDS011;5855;48.840;9.188;2023-07-31T10:10:25;4.88;;;2.55;;
11598;SDS011;5855;48.840;9.188;2023-07-31T10:12:53;5.03;;;2.55;;
11598;SDS011;5855;48.840;9.188;2023-07-31T10:15:21;3.92;;;2.33;;
11598;SDS011;5855;48.840;9.188;2023-07-31T10:17:50;6.70;;;2.70;;
11598;SDS011;5855;48.840;9.188;2023-07-31T10:20:17;4.72;;;2.13;;
11598;SDS011;5855;48.840;9.188;2023-07-31T10:22:44;3.75;;;2.35;;
11598;SDS011;5855;48.840;9.188;2023-07-31T10:25:12;4.25;;;2.20;;
11598;SDS011;5855;48.840;9.188;2023-07-31T10:27:39;6.18;;;2.72;;
11598;SDS011;5855;48.840;9.188;2023-07-31T10:30:07;3.20;;;2.22;;
11598;SDS011;5855;48.840;9.188;2023-07-31T10:32:37;3.60;;;2.05;;
11598;SDS011;5855;48.840;9.188;2023-07-31T10:35:10;5.88;;;2.50;;
11598;SDS011;5855;48.840;9.188;2023-07-31T10:37:39;6.60;;;2.92;;
11598;SDS011;5855;48.840;9.188;2023-07-31T10:40:09;4.13;;;2.08;;
11598;SDS011;5855;48.840;9.188;2023-07-31T10:42:38;3.80;;;2.25;;
11598;SDS011;5855;48.840;9.188;2023-07-31T10:45:12;4.97;;;2.58;;
11598;SDS011;5855;48.840;9.188;2023-07-31T10:47:42;3.85;;;2.30;;
11598;SDS011;5855;48.840;9.188;2023-07-31T10:50:16;3.85;;;2.38;;
11598;SDS011;5855;48.840;9.188;2023-07-31T10:52:46;3.92;;;2.15;;
11598;SDS011;5855;48.840;9.188;2023-07-31T10:55:25;3.47;;;2.45;;
11598;SDS011;5855;48.840;9.188;2023-07-31T10:57:56;4.38;;;2.20;;
11598;SDS011;5855;48.840;9.188;2023-07-31T11:00:25;4.22;;;2.40;;
11598;SDS011;5855;48.840;9.188;2023-07-31T11:02:57;5.55;;;2.78;;
11598;SDS011;5855;48.840;9.188;2023-07-31T11:08:12;4.25;;;1.98;;
11598;SDS011;5855;48.840;9.188;2023-07-31T11:10:40;3.22;;;2.13;;
11598;SDS011;5855;48.840;9.188;2023-07-31T11:13:07;6.05;;;2.80;;
11598;SDS011;5855;48.840;9.188;2023-07-31T11:15:33;4.13;;;2.40;;
11598;SDS011;5855;48.840;9.188;2023-07-31T11:18:00;5.00;;;2.67;;
11598;SDS011;5855;48.840;9.188;2023-07-31T11:20:30;6.78;;;2.70;;
11598;SDS011;5855;48.840;9.188;2023-07-31T11:23:00;4.40;;;2.40;;
11598;SDS011;5855;48.840;9.188;2023-07-31T11:25:28;5.32;;;2.50;;
11598;SDS011;5855;48.840;9.188;2023-07-31T11:28:01;4.53;;;2.55;;
11598;SDS011;5855;48.840;9.188;2023-07-31T11:30:29;3.90;;;2.40;;
11598;SDS011;5855;48.840;9.188;2023-07-31T11:32:56;3.95;;;2.17;;
11598;SDS011;5855;48.840;9.188;2023-07-31T11:35:23;6.53;;;2.45;;
11598;SDS011;5855;48.840;9.188;2023-07-31T11:37:50;4.93;;;2.35;;
11598;SDS011;5855;48.840;9.188;2023-07-31T11:40:18;3.22;;;2.28;;
11598;SDS011;5855;48.840;9.188;2023-07-31T11:42:45;5.07;;;2.35;;
11598;SDS011;5855;48.840;9.188;2023-07-31T11:45:12;5.10;;;2.53;;
11598;SDS011;5855;48.840;9.188;2023-07-31T11:47:39;5.18;;;2.70;;
11598;SDS011;5855;48.840;9.188;2023-07-31T11:50:06;4.78;;;2.60;;
11598;SDS011;5855;48.840;9.188;2023-07-31T11:52:37;4.15;;;2.80;;
11598;SDS011;5855;48.840;9.188;2023-07-31T11:55:08;5.07;;;2.40;;
11598;SDS011;5855;48.840;9.188;2023-07-31T11:57:37;3.92;;;2.25;;
11598;SDS011;5855;48.840;9.188;2023-07-31T12:00:06;4.07;;;2.70;;
11598;SDS011;5855;48.840;9.188;2023-07-31T12:02:36;4.82;;;2.63;;
11598;SDS011;5855;48.840;9.188;2023-07-31T12:05:04;4.28;;;2.45;;
11598;SDS011;5855;48.840;9.188;2023-07-31T12:07:43;3.88;;;2.45;;
11598;SDS011;5855;48.840;9.188;2023-07-31T12:10:26;5.72;;;2.67;;
11598;SDS011;5855;48.840;9.188;2023-07-31T12:13:00;12.55;;;2.63;;
11598;SDS011;5855;48.840;9.188;2023-07-31T12:15:29;5.30;;;2.22;;
11598;SDS011;5855;48.840;9.188;2023-07-31T12:17:57;4.60;;;2.40;;
11598;SDS011;5855;48.840;9.188;2023-07-31T12:20:24;6.13;;;2.72;;
11598;SDS011;5855;48.840;9.188;2023-07-31T12:22:52;4.90;;;2.45;;
11598;SDS011;5855;48.840;9.188;2023-07-31T12:25:22;4.40;;;2.38;;
11598;SDS011;5855;48.840;9.188;2023-07-31T12:27:50;4.25;;;2.78;;
11598;SDS011;5855;48.840;9.188;2023-07-31T12:30:28;5.40;;;2.55;;
11598;SDS011;5855;48.840;9.188;2023-07-31T12:32:55;3.08;;;2.25;;
11598;SDS011;5855;48.840;9.188;2023-07-31T12:35:22;4.32;;;2.47;;
11598;SDS011;5855;48.840;9.188;2023-07-31T12:37:49;3.97;;;2.25;;
11598;SDS011;5855;48.840;9.188;2023-07-31T12:40:16;5.15;;;2.42;;
11598;SDS011;5855;48.840;9.188;2023-07-31T12:42:43;6.00;;;2.92;;
11598;SDS011;5855;48.840;9.188;2023-07-31T12:45:09;4.20;;;2.55;;
11598;SDS011;5855;48.840;9.188;2023-07-31T12:47:38;5.47;;;2.63;;
11598;SDS011;5855;48.840;9.188;2023-07-31T12:50:05;7.40;;;2.47;;
11598;SDS011;5855;48.840;9.188;2023-07-31T12:52:33;5.50;;;2.92;;
11598;SDS011;5855;48.840;9.188;2023-07-31T12:55:02;6.13;;;2.60;;
11598;SDS011;5855;48.840;9.188;2023-07-31T12:57:30;3.95;;;2.63;;
11598;SDS011;5855;48.840;9.188;2023-07-31T12:59:57;5.10;;;2.80;;
11598;SDS011;5855;48.840;9.188;2023-07-31T13:02:24;4.57;;;2.63;;
11598;SDS011;5855;48.840;9.188;2023-07-31T13:04:53;4.55;;;2.47;;
11598;SDS011;5855;48.840;9.188;2023-07-31T13:07:21;6.03;;;2.50;;
11598;SDS011;5855;48.840;9.188;2023-07-31T13:09:48;3.53;;;2.20;;
11598;SDS011;5855;48.840;9.188;2023-07-31T13:12:15;4.47;;;2.50;;
11598;SDS011;5855;48.840;9.188;2023-07-31T13:14:42;5.80;;;2.50;;
11598;SDS011;5855;48.840;9.188;2023-07-31T13:17:08;3.38;;;2.28;;
11598;SDS011;5855;48.840;9.188;2023-07-31T13:19:35;4.60;;;2.38;;
11598;SDS011;5855;48.840;9.188;2023-07-31T13:22:04;5.75;;;2.72;;
11598;SDS011;5855;48.840;9.188;2023-07-31T13:24:31;5.22;;;2.83;;
11598;SDS011;5855;48.840;9.188;2023-07-31T13:26:57;3.08;;;2.50;;
11598;SDS011;5855;48.840;9.188;2023-07-31T13:29:25;5.70;;;2.53;;
11598;SDS011;5855;48.840;9.188;2023-07-31T13:31:52;3.85;;;2.55;;
11598;SDS011;5855;48.840;9.188;2023-07-31T13:34:19;4.32;;;2.42;;
11598;SDS011;5855;48.840;9.188;2023-07-31T13:36:49;3.75;;;2.35;;
11598;SDS011;5855;48.840;9.188;2023-07-31T13:39:17;3.17;;;2.30;;
11598;SDS011;5855;48.840;9.188;2023-07-31T13:41:44;4.03;;;2.45;;
11598;SDS011;5855;48.840;9.188;2023-07-31T13:44:10;4.18;;;2.50;;
11598;SDS011;5855;48.840;9.188;2023-07-31T13:46:37;4.72;;;2.50;;
11598;SDS011;5855;48.840;9.188;2023-07-31T13:49:04;3.70;;;2.55;;
11598;SDS011;5855;48.840;9.188;2023-07-31T13:51:31;4.53;;;2.30;;
11598;SDS011;5855;48.840;9.188;2023-07-31T13:53:58;5.10;;;2.55;;
11598;SDS011;5855;48.840;9.188;2023-07-31T13:56:26;5.10;;;2.40;;
11598;SDS011;5855;48.840;9.188;2023-07-31T13:58:56;3.92;;;2.15;;
11598;SDS011;5855;48.840;9.188;2023-07-31T14:01:22;3.33;;;2.40;;
11598;SDS011;5855;48.840;9.188;2023-07-31T14:03:50;4.28;;;2.35;;
11598;SDS011;5855;48.840;9.188;2023-07-31T14:06:17;4.57;;;2.45;;
11598;SDS011;5855;48.840;9.188;2023-07-31T14:08:43;4.05;;;2.20;;
11598;SDS011;5855;48.840;9.188;2023-07-31T14:11:10;4.57;;;2.53;;
11598;SDS011;5855;48.840;9.188;2023-07-31T14:13:38;5.13;;;2.30;;
11598;SDS011;5855;48.840;9.188;2023-07-31T14:16:05;3.92;;;2.33;;
11598;SDS011;5855;48.840;9.188;2023-07-31T14:18:32;5.10;;;2.60;;
11598;SDS011;5855;48.840;9.188;2023-07-31T14:20:59;4.22;;;2.30;;
11598;SDS011;5855;48.840;9.188;2023-07-31T14:23:26;4.22;;;2.30;;
11598;SDS011;5855;48.840;9.188;2023-07-31T14:25:53;3.85;;;2.33;;
11598;SDS011;5855;48.840;9.188;2023-07-31T14:28:19;3.40;;;2.30;;
11598;SDS011;5855;48.840;9.188;2023-07-31T14:30:48;4.18;;;2.40;;
11598;SDS011;5855;48.840;9.188;2023-07-31T14:33:16;3.97;;;2.17;;
11598;SDS011;5855;48.840;9.188;2023-07-31T14:35:43;5.30;;;2.58;;
11598;SDS011;5855;48.840;9.188;2023-07-31T14:38:10;4.65;;;2.50;;
11598;SDS011;5855;48.840;9.188;2023-07-31T14:40:37;4.03;;;2.45;;
11598;SDS011;5855;48.840;9.188;2023-07-31T14:43:04;3.03;;;2.17;;
11598;SDS011;5855;48.840;9.188;2023-07-31T14:45:31;4.85;;;2.22;;
11598;SDS011;5855;48.840;9.188;2023-07-31T14:47:59;3.38;;;2.58;;
11598;SDS011;5855;48.840;9.188;2023-07-31T14:50:26;3.17;;;2.60;;
11598;SDS011;5855;48.840;9.188;2023-07-31T14:52:53;4.68;;;2.60;;
11598;SDS011;5855;48.840;9.188;2023-07-31T14:55:20;3.55;;;2.10;;
11598;SDS011;5855;48.840;9.188;2023-07-31T14:57:47;5.32;;;2.47;;
11598;SDS011;5855;48.840;9.188;2023-07-31T15:00:14;4.32;;;2.45;;
11598;SDS011;5855;48.840;9.188;2023-07-31T15:02:41;3.33;;;2.22;;
11598;SDS011;5855;48.840;9.188;2023-07-31T15:05:11;5.25;;;2.30;;
11598;SDS011;5855;48.840;9.188;2023-07-31T15:07:38;4.13;;;2.58;;
11598;SDS011;5855;48.840;9.188;2023-07-31T15:10:05;3.15;;;2.22;;